TimeEDT,TemperatureF,Dew PointF,Humidity,Sea Level PressureIn,VisibilityMPH,Wind Direction,Wind SpeedMPH,Gust SpeedMPH,PrecipitationIn,Events,Conditions,WindDirDegrees,DateUTC
12:22 AM,78.1,73.0,84,30.07,10.0,ESE,15.0,-,N/A,,Mostly Cloudy,110,2013-05-30 04:22:00
12:32 AM,78.1,73.0,84,30.07,10.0,ESE,15.0,-,N/A,,Mostly Cloudy,110,2013-05-30 04:32:00
12:53 AM,78.1,73.9,87,30.07,10.0,ESE,16.1,-,N/A,,Scattered Clouds,110,2013-05-30 04:53:00
1:53 AM,78.1,73.9,87,30.06,10.0,ESE,15.0,-,N/A,,Mostly Cloudy,110,2013-05-30 05:53:00
2:08 AM,77.0,73.0,88,30.06,10.0,ESE,17.3,-,N/A,,Mostly Cloudy,110,2013-05-30 06:08:00
2:19 AM,78.1,73.0,84,30.06,10.0,ESE,16.1,-,N/A,,Mostly Cloudy,110,2013-05-30 06:19:00
2:53 AM,78.1,73.0,84,30.05,10.0,ESE,17.3,-,N/A,,Partly Cloudy,110,2013-05-30 06:53:00
3:53 AM,77.0,73.0,88,30.04,10.0,East,16.1,-,N/A,,Partly Cloudy,100,2013-05-30 07:53:00
4:53 AM,77.0,73.0,88,30.04,10.0,ESE,18.4,-,N/A,,Mostly Cloudy,120,2013-05-30 08:53:00
5:53 AM,77.0,73.0,88,30.05,10.0,ESE,16.1,-,N/A,,Partly Cloudy,110,2013-05-30 09:53:00
6:53 AM,77.0,73.0,88,30.06,10.0,ESE,15.0,-,N/A,,Partly Cloudy,110,2013-05-30 10:53:00
7:53 AM,78.1,73.9,87,30.08,9.0,East,19.6,-,N/A,,Partly Cloudy,100,2013-05-30 11:53:00
8:53 AM,78.1,73.0,84,30.08,10.0,ESE,16.1,-,N/A,,Partly Cloudy,110,2013-05-30 12:53:00
9:53 AM,82.0,70.0,67,30.07,10.0,ESE,19.6,-,N/A,,Clear,120,2013-05-30 13:53:00
10:53 AM,84.9,71.1,63,30.07,10.0,ESE,19.6,-,N/A,,Scattered Clouds,120,2013-05-30 14:53:00
11:53 AM,86.0,72.0,63,30.07,10.0,ESE,18.4,-,N/A,,Scattered Clouds,110,2013-05-30 15:53:00
12:53 PM,87.1,73.0,63,30.05,10.0,ESE,15.0,-,N/A,,Partly Cloudy,120,2013-05-30 16:53:00
1:53 PM,82.0,73.0,74,30.05,10.0,East,27.6,-,N/A,,Scattered Clouds,90,2013-05-30 17:53:00
2:53 PM,84.0,73.9,72,30.04,10.0,East,18.4,-,N/A,,Mostly Cloudy,90,2013-05-30 18:53:00
3:53 PM,84.9,72.0,65,30.02,10.0,East,21.9,-,N/A,,Mostly Cloudy,100,2013-05-30 19:53:00
4:53 PM,84.9,71.1,63,30.01,10.0,East,18.4,-,N/A,,Mostly Cloudy,100,2013-05-30 20:53:00
5:53 PM,84.9,70.0,61,30.01,10.0,ESE,21.9,-,N/A,,Mostly Cloudy,110,2013-05-30 21:53:00
6:53 PM,84.0,71.1,65,30.01,10.0,East,19.6,-,N/A,,Mostly Cloudy,100,2013-05-30 22:53:00
7:53 PM,82.0,70.0,67,30.03,10.0,SE,16.1,-,N/A,,Overcast,130,2013-05-30 23:53:00
8:53 PM,81.0,71.1,72,30.03,10.0,SSE,27.6,35.7,N/A,,Mostly Cloudy,150,2013-05-31 00:53:00
9:53 PM,79.0,71.1,77,30.06,10.0,ESE,16.1,-,N/A,,Overcast,120,2013-05-31 01:53:00
10:53 PM,80.1,70.0,71,30.06,10.0,ESE,18.4,-,N/A,,Clear,110,2013-05-31 02:53:00
11:53 PM,79.0,70.0,74,30.08,10.0,ESE,16.1,-,N/A,,Scattered Clouds,110,2013-05-31 03:53:00